Latest Coastal Weather Observations for Frederick Reef

IDQ60701

Issued at 3:21 am EST Sunday 14 February 2016 (issued every 10 minutes, with the page automatically refreshed every 10 minutes)

About coastal observations | Map of coastal stations | Coastal observations for QLD | Marine services | Other Formats
Station Details ID: 200701 Name: FREDERICK REEF Lat: -20.94 Lon: 154.40 Height: 4.9 m
Data from the previous 72 hours. | See also: Recent months for locations in Queensland
Date/Time
EST
Temp

°C
Wind Pressure Rain
since 9am
mm
Weather Cloud Vis
km
Sea
Height
m
Swell
Dir
 
Speed
knots
Gust
knots
hPa Trend Height
m
Period
s
Dir
14/03:00am 26.9 SW 8 10 1002.8 - - - - - - - - -
14/02:30am 26.8 SSW 6 7 1002.8 - - - - - - - - -
14/02:00am 26.6 SSW 7 10 1002.8 - - - - - - - - -
14/01:30am 26.8 SSW 9 10 1003.2 - - - - - - - - -
14/01:00am 26.4 SSW 10 11 1003.3 - - - - - - - - -
14/12:30am 26.7 SSW 9 11 1003.9 - - - - - - - - -
14/12:00am 26.6 SSW 12 13 1004.3 - - - - - - - - -
 
Date/Time
EST
Temp

°C
Wind Pressure Rain
since 9am
mm
Weather Cloud Vis
km
Sea
Height
m
Swell
Dir
 
Speed
knots
Gust
knots
hPa Trend Height
m
Period
s
Dir
13/11:30pm 26.3 S 10 12 1004.8 - - - - - - - - -
13/11:00pm 25.2 SSW 15 22 1005.0 - - - - - - - - -
13/10:44pm 26.6 S 15 25 1005.0 - - - - - - - - -
13/10:30pm 27.2 S 12 13 1005.3 - - - - - - - - -
13/10:00pm 27.4 S 11 13 1005.1 - - - - - - - - -
13/09:30pm 27.2 S 14 16 1005.3 - - - - - - - - -
13/09:00pm 27.1 S 14 16 1004.8 - - - - - - - - -
13/08:30pm 27.3 SSE 15 17 1004.6 - - - - - - - - -
13/08:00pm 27.5 S 16 17 1004.4 - - - - - - - - -
13/07:30pm 27.4 SSE 17 19 1004.2 - - - - - - - - -
13/07:00pm 27.3 S 19 21 1003.6 - - - - - - - - -
13/06:30pm 27.3 SSE 19 21 1003.3 - - - - - - - - -
13/06:00pm 27.5 SSE 18 19 1002.9 - - - - - - - - -
13/05:30pm 27.8 S 16 19 1002.6 - - - - - - - - -
13/05:00pm 27.6 S 16 18 1002.3 - - - - - - - - -
13/04:30pm 27.5 S 16 18 1002.0 - - - - - - - - -
13/04:00pm 27.6 S 16 19 1001.8 - - - - - - - - -
13/03:30pm 27.6 SSE 18 19 1002.0 - - - - - - - - -
13/03:00pm 27.4 SSE 18 20 1001.8 - - - - - - - - -
13/02:30pm 27.8 S 14 16 1002.3 - - - - - - - - -
13/02:00pm 27.7 S 14 16 1002.5 - - - - - - - - -
13/01:30pm 27.7 S 13 15 1002.8 - - - - - - - - -
13/01:00pm 27.5 SSE 14 17 1002.8 - - - - - - - - -
13/12:30pm 27.6 SSE 15 17 1003.0 - - - - - - - - -
13/12:00pm 27.6 SSE 15 17 1003.1 - - - - - - - - -
13/11:30am 27.4 SSE 17 19 1003.7 - - - - - - - - -
13/11:00am 27.1 S 14 17 1004.0 - - - - - - - - -
13/10:30am 27.2 S 13 15 1004.1 - - - - - - - - -
13/10:00am 27.1 S 16 19 1003.8 - - - - - - - - -
13/09:30am 27.0 SSE 20 23 1004.1 - - - - - - - - -
13/09:00am 27.3 S 18 20 1003.9 - - - - - - - - -
13/08:30am 26.9 S 17 19 1004.0 - - - - - - - - -
13/08:00am 26.7 S 21 25 1003.9 - - - - - - - - -
13/07:30am 27.3 S 20 23 1003.7 - - - - - - - - -
13/07:00am 27.3 S 20 23 1003.5 - - - - - - - - -
13/06:30am 27.0 S 22 25 1003.3 - - - - - - - - -
13/06:00am 27.3 S 21 24 1003.0 - - - - - - - - -
13/05:30am 27.3 S 21 23 1002.7 - - - - - - - - -
13/05:00am 27.3 S 21 24 1002.3 - - - - - - - - -
13/04:30am 27.2 S 21 25 1002.2 - - - - - - - - -
13/04:00am 27.2 SSE 21 25 1001.9 - - - - - - - - -
13/03:30am 26.9 SSE 22 25 1001.7 - - - - - - - - -
13/03:00am 26.9 SSE 23 26 1001.7 - - - - - - - - -
13/02:30am 27.2 SSE 22 25 1002.2 - - - - - - - - -
13/02:00am 27.1 SSE 21 23 1002.5 - - - - - - - - -
13/01:30am 27.2 SSE 24 26 1002.6 - - - - - - - - -
13/01:00am 27.2 S 24 26 1002.7 - - - - - - - - -
13/12:30am 27.1 SSE 24 29 1003.7 - - - - - - - - -
13/12:00am 27.3 S 24 27 1003.9 - - - - - - - - -
 
Date/Time
EST
Temp

°C
Wind Pressure Rain
since 9am
mm
Weather Cloud Vis
km
Sea
Height
m
Swell
Dir
 
Speed
knots
Gust
knots
hPa Trend Height
m
Period
s
Dir
12/11:30pm 27.4 S 25 28 1004.7 - - - - - - - - -
12/11:00pm 27.4 S 24 27 1004.7 - - - - - - - - -
12/10:30pm 27.3 SSE 24 27 1005.0 - - - - - - - - -
12/10:00pm 27.4 SSE 24 27 1004.9 - - - - - - - - -
12/09:30pm 27.4 SSE 24 28 1005.4 - - - - - - - - -
12/09:00pm 27.3 SSE 24 28 1005.4 - - - - - - - - -
12/08:30pm 27.2 SSE 25 29 1005.1 - - - - - - - - -
12/08:00pm 27.4 SSE 27 31 1004.9 - - - - - - - - -
12/07:30pm 27.6 SSE 27 29 1004.9 - - - - - - - - -
12/07:00pm 27.6 SSE 27 31 1004.5 - - - - - - - - -
12/06:30pm 27.5 SSE 25 28 1004.6 - - - - - - - - -
12/06:00pm 27.5 SSE 26 29 1004.4 - - - - - - - - -
12/05:30pm 26.8 SSE 23 27 1004.4 - - - - - - - - -
12/05:00pm 26.6 SSE 26 30 1003.8 - - - - - - - - -
12/04:30pm 27.3 SSE 24 27 1003.7 - - - - - - - - -
12/04:00pm 27.1 SSE 24 26 1003.4 - - - - - - - - -
12/03:30pm 27.0 SSE 25 28 1003.4 - - - - - - - - -
12/03:00pm 27.1 SSE 25 29 1003.2 - - - - - - - - -
12/02:30pm 27.0 SSE 21 26 1003.6 - - - - - - - - -
12/02:00pm 26.0 S 22 25 1003.6 - - - - - - - - -
12/01:30pm 27.2 S 20 22 1004.0 - - - - - - - - -
12/01:00pm 26.6 SSE 24 27 1004.3 - - - - - - - - -
12/12:30pm 27.3 SSE 23 25 1004.8 - - - - - - - - -
12/12:00pm 27.4 SSE 21 24 1004.9 - - - - - - - - -
12/11:30am 27.2 SSE 20 22 1005.3 - - - - - - - - -
12/11:00am 27.6 SSE 21 25 1005.4 - - - - - - - - -
12/10:30am 27.3 SSE 21 24 1005.9 - - - - - - - - -
12/10:00am 27.4 SSE 22 25 1006.0 - - - - - - - - -
12/09:30am 27.4 SSE 20 23 1006.3 - - - - - - - - -
12/09:00am 27.2 SSE 22 23 1006.3 - - - - - - - - -
12/08:30am 27.4 SSE 21 24 1006.3 - - - - - - - - -
12/08:00am 27.2 SSE 20 24 1006.1 - - - - - - - - -
12/07:30am 27.3 SSE 21 23 1005.8 - - - - - - - - -
12/07:00am 27.2 SSE 20 23 1005.7 - - - - - - - - -
12/06:30am 27.0 SSE 21 24 1005.6 - - - - - - - - -
12/06:00am 26.8 SSE 20 22 1005.2 - - - - - - - - -
12/05:30am 26.8 SSE 20 23 1004.9 - - - - - - - - -
12/05:00am 26.9 SSE 21 22 1004.7 - - - - - - - - -
12/04:30am 27.1 SSE 20 23 1004.7 - - - - - - - - -
12/04:00am 26.9 SSE 20 22 1004.5 - - - - - - - - -
12/03:30am 27.1 SSE 21 23 1004.6 - - - - - - - - -
12/03:00am 27.1 SSE 21 23 1004.6 - - - - - - - - -
12/02:30am 27.0 SSE 20 22 1004.9 - - - - - - - - -
12/02:00am 26.9 SSE 20 22 1004.8 - - - - - - - - -
12/01:30am 27.2 SSE 21 24 1005.0 - - - - - - - - -
12/01:00am 27.0 SSE 20 22 1005.2 - - - - - - - - -
12/12:30am 27.0 SSE 19 22 1005.8 - - - - - - - - -
12/12:00am 27.1 SSE 21 23 1005.8 - - - - - - - - -
 
Date/Time
EST
Temp

°C
Wind Pressure Rain
since 9am
mm
Weather Cloud Vis
km
Sea
Height
m
Swell
Dir
 
Speed
knots
Gust
knots
hPa Trend Height
m
Period
s
Dir
11/11:30pm 26.4 SE 18 23 1006.3 - - - - - - - - -
11/11:25pm 25.9 SE 20 30 1006.4 - - - - - - - - -
11/11:19pm 26.2 SE 24 28 1006.4 - - - - - - - - -
11/11:00pm 26.9 SSE 19 22 1006.4 - - - - - - - - -
11/10:30pm 26.7 SSE 21 24 1006.6 - - - - - - - - -
11/10:00pm 27.0 SSE 22 25 1006.6 - - - - - - - - -
11/09:30pm 27.2 SSE 21 23 1006.5 - - - - - - - - -
11/09:00pm 27.2 SSE 22 25 1006.2 - - - - - - - - -
11/08:30pm 27.3 SSE 24 27 1006.0 - - - - - - - - -
11/08:00pm 27.1 SSE 24 26 1005.8 - - - - - - - - -
11/07:30pm 26.7 SSE 23 27 1005.7 - - - - - - - - -
11/07:00pm 26.2 SSE 23 28 1005.7 - - - - - - - - -
11/06:30pm 27.2 SSE 21 25 1005.6 - - - - - - - - -
11/06:00pm 27.1 SSE 23 25 1005.1 - - - - - - - - -
11/05:30pm 27.2 SSE 23 25 1004.9 - - - - - - - - -
11/05:00pm 27.3 SSE 24 26 1004.7 - - - - - - - - -
11/04:30pm 27.2 SSE 23 25 1004.5 - - - - - - - - -
11/04:00pm 27.1 SSE 22 26 1004.4 - - - - - - - - -
11/03:30pm 26.8 SSE 23 25 1004.6 - - - - - - - - -
11/03:00pm 27.0 SSE 23 27 1004.6 - - - - - - - - -
11/02:30pm 27.0 SSE 25 28 1004.7 - - - - - - - - -
11/02:00pm 26.8 SSE 25 27 1004.6 - - - - - - - - -
11/01:30pm 27.6 SSE 23 25 1005.1 - - - - - - - - -
11/01:00pm 27.3 SSE 23 25 1005.0 - - - - - - - - -
11/12:30pm 27.3 SSE 23 26 1005.5 - - - - - - - - -
11/12:00pm 27.2 SSE 23 26 1005.7 - - - - - - - - -
11/11:30am 27.3 SSE 24 27 1005.8 - - - - - - - - -
11/11:00am 27.3 SSE 24 27 1005.9 - - - - - - - - -
11/10:30am 27.6 SSE 24 27 1006.1 - - - - - - - - -
11/10:00am 27.3 SSE 23 26 1006.1 - - - - - - - - -
11/09:30am 27.4 SSE 23 25 1006.3 - - - - - - - - -
11/09:00am 27.4 SSE 24 27 1006.3 - - - - - - - - -
11/08:30am 27.3 SSE 24 27 1006.6 - - - - - - - - -
11/08:00am 27.4 SSE 23 26 1006.4 - - - - - - - - -
11/07:30am 27.4 SSE 24 26 1006.3 - - - - - - - - -
11/07:00am 27.1 SSE 24 27 1005.9 - - - - - - - - -
11/06:30am 26.9 SSE 24 28 1005.4 - - - - - - - - -
11/06:00am 27.0 SSE 24 27 1005.2 - - - - - - - - -
11/05:30am 27.0 SSE 22 25 1004.9 - - - - - - - - -
11/05:00am 26.7 SSE 22 26 1004.8 - - - - - - - - -
11/04:30am 26.7 SSE 25 27 1004.5 - - - - - - - - -
11/04:00am 26.9 SSE 24 28 1004.3 - - - - - - - - -
11/03:30am 26.9 SSE 24 26 1004.5 - - - - - - - - -

Other Formats:

Comma delimited format used in spreadsheet applications
http://www.bom.gov.au/fwo/IDQ60701/IDQ60701.94393.axf

JavaScript Object Notation format (JSON) in row-major order
http://www.bom.gov.au/fwo/IDQ60701/IDQ60701.94393.json